Time;durP1;ratioP1;P1;durP2;ratioP2;P2;SDS_P1;SDS_P2;PMS_P1;PMS_P2;Temp;Humidity;BMP_temperature;BMP_pressure;BME280_temperature;BME280_humidity;BME280_pressure;Samples;Min_cycle;Max_cycle;Signal;HPM_P1;HPM_P2
2021/07/27 00:09:24;;;;;;;13.23;12.10;;;;;;;19.60;72.07;99116.98;532586;1089;117947;-59
2021/07/27 00:19:29;;;;;;;;;;;;;;;19.49;72.63;99109.34;531896;1089;116542;-58
2021/07/27 00:29:37;;;;;;;16.37;14.87;;;;;;;19.39;73.92;99115.70;532890;1088;102611;-59
2021/07/27 00:39:43;;;;;;;18.53;16.88;;;;;;;19.24;73.99;99112.88;532613;1088;116543;-59
2021/07/27 00:49:51;;;;;;;26.17;23.73;;;;;;;19.13;74.93;99089.26;531899;1089;117293;-59
2021/07/27 00:59:57;;;;;;;29.43;24.83;;;;;;;19.04;75.46;99080.42;532564;1090;117434;-59
2021/07/27 01:10:04;;;;;;;27.25;24.65;;;;;;;19.01;75.66;99064.80;532199;1089;117770;-59
2021/07/27 01:20:19;;;;;;;30.50;27.33;;;;;;;19.00;76.28;99052.50;531254;1088;117020;-59
2021/07/27 01:40:57;;;;;;;24.47;21.77;;;;;;;18.91;76.30;99049.80;531865;1089;117560;-59
2021/07/27 01:51:04;;;;;;;28.77;23.50;;;;;;;18.87;76.50;99060.92;532599;1088;117397;-59
2021/07/27 02:01:11;;;;;;;20.33;18.33;;;;;;;18.84;75.98;99058.61;532573;1088;117044;-59
2021/07/27 02:11:24;;;;;;;23.37;20.93;;;;;;;18.84;75.71;99051.47;532612;1088;116538;-60
2021/07/27 02:21:30;;;;;;;23.60;21.00;;;;;;;19.01;76.30;99059.48;532623;1088;117677;-59
2021/07/27 02:31:42;;;;;;;26.73;24.13;;;;;;;19.00;76.03;99071.97;531900;1088;117487;-64
2021/07/27 02:41:49;;;;;;;21.70;19.47;;;;;;;19.03;75.67;99063.64;532602;1089;117306;-60
2021/07/27 02:51:56;;;;;;;20.10;18.13;;;;;;;19.11;75.44;99070.78;532701;1088;116082;-59
2021/07/27 03:02:02;;;;;;;27.23;24.53;;;;;;;19.11;75.83;99057.48;531920;1088;117703;-59
2021/07/27 03:12:09;;;;;;;23.67;21.20;;;;;;;19.28;75.92;99058.30;532667;1088;117965;-59
2021/07/27 03:22:15;;;;;;;23.43;21.00;;;;;;;19.51;75.83;99054.09;532657;1088;117259;-59
2021/07/27 03:32:22;;;;;;;25.30;22.38;;;;;;;19.49;75.29;99056.94;532574;1089;116997;-59
2021/07/27 03:42:28;;;;;;;26.67;24.10;;;;;;;19.98;75.26;99071.99;532481;1089;117092;-59
2021/07/27 03:52:36;;;;;;;29.63;19.97;;;;;;;20.35;75.04;99058.98;531860;1088;116681;-59
2021/07/27 04:02:42;;;;;;;24.53;21.93;;;;;;;20.32;74.62;99063.85;532635;1089;117909;-59
2021/07/27 04:12:49;;;;;;;26.60;23.47;;;;;;;20.36;74.87;99081.15;532649;1088;117769;-59
2021/07/27 04:22:56;;;;;;;23.87;21.37;;;;;;;19.99;74.42;99102.96;523192;1090;116985;-56
2021/07/27 04:33:02;;;;;;;20.33;18.15;;;;;;;19.97;73.57;99176.06;532623;1089;117079;-58
2021/07/27 04:43:09;;;;;;;23.40;17.83;;;;;;;19.62;74.58;99168.23;520444;1088;117832;-58
2021/07/27 04:53:21;;;;;;;20.17;18.10;;;;;;;19.41;75.42;99182.06;531838;1089;116604;-59
2021/07/27 05:03:27;;;;;;;19.50;17.27;;;;;;;18.54;77.14;99144.14;532605;1089;117367;-58
2021/07/27 05:13:34;;;;;;;19.83;17.73;;;;;;;17.98;78.83;99197.64;531897;1089;117634;-58
2021/07/27 05:23:40;;;;;;;17.87;15.50;;;;;;;17.91;79.60;99168.22;532594;1088;116261;-58
2021/07/27 05:33:47;;;;;;;16.57;14.83;;;;;;;17.99;80.01;99172.74;532593;1088;116480;-58
2021/07/27 05:43:54;;;;;;;18.07;15.97;;;;;;;18.30;80.21;99171.47;531869;1089;117513;-58
2021/07/27 05:54:01;;;;;;;17.93;16.07;;;;;;;18.66;80.29;99186.38;532611;1088;116030;-58
2021/07/27 06:04:07;;;;;;;17.67;15.80;;;;;;;18.83;79.65;99187.27;532602;1089;116987;-58
2021/07/27 06:14:13;;;;;;;17.23;15.57;;;;;;;18.88;79.43;99190.30;531876;1089;118143;-58
2021/07/27 06:24:20;;;;;;;18.93;16.43;;;;;;;18.93;79.71;99195.09;532629;1089;117289;-58
2021/07/27 06:34:26;;;;;;;19.07;17.20;;;;;;;19.07;79.84;99223.78;531951;1088;116940;-58
2021/07/27 06:44:33;;;;;;;18.77;16.97;;;;;;;19.77;79.63;99202.20;532583;1089;117427;-58
2021/07/27 06:54:39;;;;;;;14.33;12.93;;;;;;;28.37;73.30;99225.59;515961;1088;117369;-58
2021/07/27 07:04:46;;;;;;;13.10;12.07;;;;;;;31.73;61.18;99218.84;514250;1089;116393;-57
2021/07/27 07:14:57;;;;;;;11.85;10.85;;;;;;;30.29;58.63;99228.64;532577;1089;117605;-58
2021/07/27 07:25:03;;;;;;;12.35;11.38;;;;;;;37.55;54.08;99221.89;532624;1089;116005;-58
2021/07/27 07:35:11;;;;;;;10.60;9.90;;;;;;;37.40;46.62;99215.43;531908;1088;115986;-59
2021/07/27 07:45:18;;;;;;;9.83;9.08;;;;;;;46.41;40.07;99208.10;532613;1089;117502;-59
2021/07/27 07:55:24;;;;;;;9.10;8.50;;;;;;;51.92;32.15;99200.08;531893;1089;116484;-59
2021/07/27 08:05:31;;;;;;;7.95;7.43;;;;;;;49.66;27.28;99200.61;532617;1089;116613;-58
2021/07/27 08:15:37;;;;;;;9.13;8.43;;;;;;;44.03;29.58;99206.79;532553;1089;116425;-59
2021/07/27 08:25:44;;;;;;;8.27;7.47;;;;;;;40.82;31.23;99212.24;531870;1089;117109;-59
2021/07/27 08:35:51;;;;;;;8.23;7.53;;;;;;;39.02;32.74;99207.05;532570;1088;117634;-58
2021/07/27 08:45:58;;;;;;;8.20;7.50;;;;;;;37.23;34.14;99204.89;532582;1089;115769;-58
2021/07/27 08:56:05;;;;;;;8.10;7.43;;;;;;;35.58;35.56;99217.26;531858;1089;115984;-58
2021/07/27 09:06:11;;;;;;;8.63;8.03;;;;;;;34.38;37.39;99219.70;532602;1089;116525;-58
2021/07/27 09:16:20;;;;;;;9.90;9.00;;;;;;;33.75;38.74;99220.39;532211;1090;116476;-52
2021/07/27 09:26:26;;;;;;;10.67;9.80;;;;;;;33.36;39.49;99229.61;532588;1088;116065;-59
2021/07/27 09:36:34;;;;;;;10.10;9.20;;;;;;;33.25;39.66;99234.11;532640;1088;116447;-58
2021/07/27 09:46:40;;;;;;;10.13;8.70;;;;;;;32.60;39.74;99225.78;531876;1089;118085;-59
2021/07/27 09:56:47;;;;;;;11.25;8.90;;;;;;;32.25;40.28;99237.80;532671;1089;117728;-59
2021/07/27 10:06:54;;;;;;;9.27;8.47;;;;;;;31.89;41.15;99229.98;532512;1090;116633;-58
2021/07/27 10:17:04;;;;;;;9.57;8.87;;;;;;;31.80;41.61;99234.19;531845;1089;116234;-58
2021/07/27 10:27:16;;;;;;;10.50;9.57;;;;;;;31.63;42.11;99242.30;532577;1089;116436;-59
2021/07/27 10:37:23;;;;;;;9.77;8.90;;;;;;;31.26;42.01;99244.41;531886;1088;117862;-59
2021/07/27 10:47:30;;;;;;;9.50;8.55;;;;;;;30.67;43.13;99247.31;532592;1090;116310;-58
2021/07/27 10:57:38;;;;;;;10.17;9.20;;;;;;;30.44;43.32;99247.11;532658;1089;115479;-59
2021/07/27 11:07:45;;;;;;;9.95;9.15;;;;;;;30.37;43.70;99243.69;531863;1089;116763;-58
2021/07/27 11:17:53;;;;;;;8.87;8.13;;;;;;;30.20;44.00;99241.72;532586;1087;116363;-59
2021/07/27 11:28:09;;;;;;;9.07;8.20;;;;;;;29.56;44.75;99233.44;523955;1090;115801;-57
2021/07/27 11:38:24;;;;;;;13.53;7.03;;;;;;;28.95;44.14;99235.08;531866;1088;116549;-61
2021/07/27 11:48:34;;;;;;;7.07;6.50;;;;;;;28.95;44.07;99232.38;532662;1088;117411;-58
2021/07/27 11:58:41;;;;;;;6.03;5.45;;;;;;;28.70;43.07;99229.78;529499;1090;116285;-57
2021/07/27 12:08:48;;;;;;;7.75;5.33;;;;;;;28.67;42.71;99214.84;517579;1090;116601;-59
2021/07/27 12:18:54;;;;;;;5.55;5.05;;;;;;;28.60;42.73;99210.58;532637;1088;116712;-58
2021/07/27 12:29:01;;;;;;;4.10;3.80;;;;;;;28.73;41.62;99196.91;531868;1089;116638;-59
2021/07/27 12:39:07;;;;;;;4.35;3.90;;;;;;;28.74;42.28;99182.34;532601;1089;116156;-59
2021/07/27 12:49:15;;;;;;;5.50;5.00;;;;;;;28.91;41.54;99179.86;532634;1088;117047;-59
2021/07/27 12:59:23;;;;;;;5.07;4.67;;;;;;;28.94;42.04;99162.38;532592;1089;116115;-59
2021/07/27 13:09:29;;;;;;;4.90;4.47;;;;;;;29.20;41.96;99149.51;532624;1090;116679;-59
2021/07/27 13:19:36;;;;;;;3.75;3.45;;;;;;;29.48;40.99;99143.47;531888;1090;116951;-58
2021/07/27 13:29:42;;;;;;;4.80;4.30;;;;;;;29.68;40.51;99144.17;532622;1088;116187;-60
2021/07/27 13:39:49;;;;;;;7.28;3.63;;;;;;;29.73;40.47;99136.19;532604;1089;117267;-59
2021/07/27 13:49:55;;;;;;;3.48;3.28;;;;;;;29.92;39.50;99139.58;531904;1088;116360;-58
2021/07/27 14:00:03;;;;;;;2.90;2.58;;;;;;;30.15;39.30;99137.92;532616;1090;116146;-58
2021/07/27 14:10:13;;;;;;;3.23;3.03;;;;;;;30.09;38.88;99128.88;532601;1089;115837;-58
2021/07/27 14:20:19;;;;;;;3.30;2.80;;;;;;;29.98;39.18;99126.98;532645;1089;116023;-58
2021/07/27 14:30:26;;;;;;;7.25;3.55;;;;;;;30.24;39.95;99131.05;532637;1089;116652;-58
2021/07/27 14:40:33;;;;;;;8.28;3.90;;;;;;;30.53;39.15;99133.79;531924;1089;116428;-59
2021/07/27 14:50:40;;;;;;;4.23;3.87;;;;;;;30.74;39.11;99128.79;532605;1090;116529;-58
2021/07/27 15:00:46;;;;;;;3.50;3.20;;;;;;;30.61;38.50;99130.70;532617;1089;116594;-60
2021/07/27 15:10:53;;;;;;;3.25;2.95;;;;;;;30.70;38.88;99125.74;531936;1088;116136;-58
2021/07/27 15:20:59;;;;;;;4.33;2.97;;;;;;;30.66;38.25;99130.02;532637;1089;117604;-58
2021/07/27 15:31:06;;;;;;;4.20;2.80;;;;;;;30.40;38.17;99132.17;532695;1088;117911;-58
2021/07/27 15:41:13;;;;;;;2.75;2.55;;;;;;;29.99;37.88;99134.03;531875;1089;169833;-58
2021/07/27 15:51:20;;;;;;;3.40;2.60;;;;;;;29.50;37.70;99114.30;532608;1090;116119;-59
2021/07/27 16:01:26;;;;;;;3.65;2.68;;;;;;;29.19;38.61;99112.72;531903;1089;116477;-59
2021/07/27 16:11:32;;;;;;;;;;;;;;;28.87;39.12;99121.11;532611;1089;117267;-58
2021/07/27 16:21:38;;;;;;;4.53;3.43;;;;;;;28.46;39.39;99132.45;532934;1090;102343;-59
2021/07/27 16:31:46;;;;;;;2.85;2.65;;;;;;;28.13;40.33;99138.20;531806;1090;116233;-58
2021/07/27 16:41:51;;;;;;;;;;;;;;;27.68;41.98;99143.65;532624;1089;115894;-60
2021/07/27 16:51:57;;;;;;;6.17;3.50;;;;;;;27.37;42.94;99152.61;532891;1089;102577;-59
2021/07/27 17:02:03;;;;;;;4.67;3.47;;;;;;;27.20;44.51;99163.10;531873;1088;117615;-59
2021/07/27 17:12:10;;;;;;;4.20;3.80;;;;;;;27.09;45.10;99172.69;532582;1088;116277;-59
2021/07/27 17:22:17;;;;;;;4.95;4.40;;;;;;;27.07;45.69;99178.31;532647;1088;115849;-59
2021/07/27 17:32:24;;;;;;;4.37;3.93;;;;;;;27.17;46.47;99166.21;532597;1089;117600;-59
2021/07/27 17:42:32;;;;;;;4.53;3.53;;;;;;;27.11;46.80;99167.91;532640;1089;116865;-59
2021/07/27 17:52:39;;;;;;;6.70;3.57;;;;;;;26.62;46.89;99167.55;531866;1088;115400;-59
2021/07/27 18:02:45;;;;;;;6.87;3.50;;;;;;;26.24;48.31;99174.52;532683;1090;116832;-59
2021/07/27 18:12:52;;;;;;;5.13;3.80;;;;;;;25.74;47.78;99182.02;532644;1088;117433;-59
2021/07/27 18:22:58;;;;;;;5.00;3.77;;;;;;;25.06;49.03;99172.23;531861;1089;117515;-59
2021/07/27 18:33:05;;;;;;;5.03;4.00;;;;;;;24.53;51.18;99181.77;532620;1089;116040;-59
2021/07/27 18:43:11;;;;;;;7.55;5.10;;;;;;;24.03;53.22;99190.77;532676;1088;115948;-59
2021/07/27 18:53:18;;;;;;;8.23;4.60;;;;;;;23.57;54.31;99193.89;531905;1088;116950;-59
2021/07/27 19:03:24;;;;;;;9.53;6.33;;;;;;;23.14;55.82;99198.20;532589;1088;116818;-58
2021/07/27 19:13:31;;;;;;;10.17;5.73;;;;;;;22.79;56.77;99203.38;531866;1089;116049;-59
2021/07/27 19:23:37;;;;;;;9.83;5.60;;;;;;;22.56;58.02;99203.52;532583;1088;116399;-58
2021/07/27 19:33:45;;;;;;;13.83;5.97;;;;;;;22.35;59.01;99213.09;532540;1089;116044;-59
2021/07/27 19:43:53;;;;;;;12.07;6.50;;;;;;;22.04;59.83;99208.73;531883;1088;116932;-60
2021/07/27 19:54:00;;;;;;;8.17;7.00;;;;;;;21.72;60.63;99203.52;532621;1088;117506;-58
2021/07/27 20:04:07;;;;;;;13.27;6.77;;;;;;;21.56;61.32;99209.80;532591;1088;116204;-59
2021/07/27 20:14:13;;;;;;;8.60;5.57;;;;;;;21.45;62.05;99220.91;531923;1089;116506;-58
2021/07/27 20:24:20;;;;;;;8.13;5.93;;;;;;;21.32;62.37;99221.52;532601;1088;116829;-58
2021/07/27 20:34:26;;;;;;;9.13;6.03;;;;;;;21.09;63.41;99225.00;531893;1088;116264;-58
2021/07/27 20:44:33;;;;;;;7.93;6.40;;;;;;;20.91;63.79;99227.94;532657;1090;116521;-59
2021/07/27 20:54:39;;;;;;;9.37;6.47;;;;;;;20.74;64.29;99233.30;532568;1089;116909;-59
2021/07/27 21:04:45;;;;;;;13.20;6.30;;;;;;;20.54;65.25;99251.55;531916;1088;116658;-59
2021/07/27 21:14:53;;;;;;;11.10;7.17;;;;;;;20.40;65.41;99250.42;532582;1088;116940;-58
2021/07/27 21:24:59;;;;;;;11.33;6.80;;;;;;;20.34;65.55;99251.13;532653;1088;116362;-58
2021/07/27 21:35:06;;;;;;;14.63;7.10;;;;;;;20.17;65.76;99275.13;531928;1089;116835;-59
2021/07/27 21:45:14;;;;;;;10.77;7.33;;;;;;;19.96;66.29;99279.13;532637;1088;116817;-59
2021/07/27 21:55:20;;;;;;;14.93;11.23;;;;;;;19.85;66.69;99292.75;531886;1090;117209;-57
2021/07/27 22:05:27;;;;;;;9.03;7.70;;;;;;;19.82;66.92;99293.09;532632;1088;116232;-59
2021/07/27 22:15:33;;;;;;;11.63;9.03;;;;;;;19.68;67.35;99303.41;532595;1089;116611;-59
2021/07/27 22:25:56;;;;;;;12.57;8.90;;;;;;;19.58;67.99;99305.39;531891;1089;116686;-58
2021/07/27 22:36:02;;;;;;;19.67;11.13;;;;;;;19.58;68.26;99294.74;532689;1088;116343;-59
2021/07/27 22:46:09;;;;;;;13.30;9.00;;;;;;;19.47;68.35;99282.59;532606;1089;117373;-59
2021/07/27 22:56:15;;;;;;;16.80;8.93;;;;;;;19.35;68.53;99290.03;531784;1088;116069;-59
2021/07/27 23:06:22;;;;;;;17.40;9.83;;;;;;;19.25;69.23;99279.55;532584;1088;116911;-59
2021/07/27 23:16:28;;;;;;;15.97;9.67;;;;;;;19.13;69.41;99264.88;531812;1089;116705;-58
2021/07/27 23:26:39;;;;;;;10.67;8.90;;;;;;;19.01;69.44;99249.21;532639;1090;117110;-58
2021/07/27 23:36:47;;;;;;;11.37;8.53;;;;;;;18.90;69.86;99247.63;532617;1090;116360;-59
2021/07/27 23:46:53;;;;;;;10.68;9.38;;;;;;;18.77;70.09;99228.64;531869;1089;117335;-58
2021/07/27 23:57:00;;;;;;;12.97;9.53;;;;;;;18.66;70.26;99224.45;532709;1089;117006;-58
